Laurel Springs, NC (28644)

6:53 AM EDT on April 21, 2015 (GMT -0400)
rural | | Change Station
CLOSE
Current Station
Personal Weather Station
Location: Laurel Springs, NC
Elevation: 2980 ft
Nearby Weather Stations

Elev 2980 ft 36.40 °N, 81.22 °W | Updated 3 minutes ago

Overcast
Overcast
42.4 °F
Feels Like 42 °F
N
1.0
Wind Variable Wind from SSW
Gusts 2.0 mph

Today
High -- | Low -- °F
--% Chance of Precip.
Yesterday
High -- | Low -- °F
Precip. -- in
6:43 AM 8:04 PM
Waxing Crescent, 9% visible
Pressure 29.82 in
Visibility 10.0 miles
Clouds Mostly Cloudy 2500 ft
Overcast 3300 ft
Windchill 42 °F
Dew Point 40 °F
Humidity 91%
Rainfall 0.00 in
Snow Depth Not available.
UV 0 out of 12
Pollen 8.20 out of 12
Air Quality Not available.
Flu Activity Sporadic
METAR KGEV 211035Z AUTO 32011G17KT 10SM DZ BKN025 OVC033 07/01 A2982 RMK AO2 T00710012

More Conditions Fewer Conditions

Pressure 29.82 in
Visibility 10.0 miles
Clouds Mostly Cloudy 2500 ft
Overcast 3300 ft
Windchill 42 °F
Dew Point 40 °F
Humidity 91%
Rainfall 0.00 in
Snow Depth Not available.
UV 0 out of 12
Pollen 8.20 out of 12
Air Quality Not available.
Flu Activity Sporadic
METAR KGEV 211035Z AUTO 32011G17KT 10SM DZ BKN025 OVC033 07/01 A2982 RMK AO2 T00710012

More Conditions Fewer Conditions

10-Day Weather Forecast

Almanac

Astronomy

Apr. 21, 2015 Rise Set
Actual Time
Civil Twilight
Nautical Twilight
Astronomical Twilight
Moon
Length of Visible Light
Length of Day
Tomorrow will be .
, % of the Moon is Illuminated

Today's Extremes

State Highs State Lows

Community

WunderPhotos

Upload Photos

1,815,340 photos uploaded!

WunderBlogs® & News

Nearby

Air Quality

  Air Quality AQ Index Pollutant
Not available.

Snow Depth

Station Depth Elevation

Earthquake Activity

City Distance Mag. Time & Date
Minimum magnitude displayed is 2.5.

Coastal Water Temperatures

Place Temperature

Stations

Nearby Weather Stations

Station Location Temp. Windchill Dew Point Humidity Wind Precip. Elev Updated Type